• Join FlightAware (Why Join?)
  • Login
  • US Flag 
10:24AM EST


 

Airport Tracker/Info


-or-


 

Live Flight TrackerFlight Track Log ✈ QXE2222 ✈ 27-Apr-2013 ✈ KRDM - KSEA

Flight Track Log - Related Links

Times and Time Zones

All times are in EDT time to prevent confusion due to time zone crossing. See the QXE2222 flight status page for this flight to view local times or setup timezone preferences in your user account.

Time Position Orientation Groundspeed Altitude Reporting Facility
EDT Latitude Longitude Course Direction KTS MPH feet Rate Location/Type
02:50PM 44.2672 -121.1242 346° North 115 132 4,400  Level Seattle Center
02:51PM 44.3117 -121.1458 341° North 215 247 5,600 1,800 Climbing Seattle Center
02:52PM 44.3569 -121.2022 318° Northwest 216 249 8,100 2,520 Climbing Seattle Center
02:53PM 44.4069 -121.2539 324° Northwest 224 258 10,700 2,400 Climbing Seattle Center
02:54PM 44.4583 -121.3014 327° Northwest 222 255 13,000 1,500 Climbing Seattle Center
02:55PM 44.7286 -121.3140 346° North  Level Estimated
02:55PM 44.5122 -121.3556 324° Northwest 237 273 13,800  Level Seattle Center
02:56PM 44.8077 -121.3416 346° North  Level Estimated
02:56PM 44.5742 -121.4153 326° Northwest 266 306 15,200  Level Seattle Center
02:57PM 44.6342 -121.4728 326° Northwest 273 314 16,600 1,260 Climbing Seattle Center
02:58PM 44.7078 -121.5450 325° Northwest 270 311 17,800 1,380 Climbing Seattle Center
02:59PM 44.7697 -121.6056 325° Northwest 269 310 19,400 1,380 Climbing Seattle Center
03:00PM 44.8306 -121.6650 325° Northwest 268 308 20,700 1,260 Climbing Seattle Center
03:01PM 44.8900 -121.7244 325° Northwest 264 304 22,000 1,020 Climbing Seattle Center
03:02PM 44.9514 -121.7844 325° Northwest 267 307 22,800 780 Climbing Seattle Center
03:03PM 45.0125 -121.8450 325° Northwest 269 310 23,600 540 Climbing Seattle Center
03:04PM 45.0761 -121.9089 325° Northwest 268 308 24,000 180 Climbing Seattle Center
03:05PM 45.1347 -121.9703 324° Northwest 284 327 24,000  Level Seattle Center
03:06PM 45.2033 -122.0392 325° Northwest 298 343 24,000  Level Seattle Center
03:07PM 45.2739 -122.1103 325° Northwest 308 354 24,000  Level Seattle Center
03:08PM 45.3433 -122.1800 325° Northwest 308 354 24,000  Level Seattle Center
03:09PM 45.4247 -122.2628 324° Northwest 304 350 24,000  Level Seattle Center
03:10PM 45.4919 -122.3297 325° Northwest 299 344 24,000  Level Seattle Center
03:11PM 45.5589 -122.3975 325° Northwest 299 344 24,000  Level Seattle Center
03:13PM 45.6256 -122.4650 325° Northwest 297 342 24,000  Level Seattle Center
03:14PM 45.6925 -122.5347 324° Northwest 300 345 24,000  Level Seattle Center
03:15PM 45.7650 -122.6000 328° Northwest 308 354 24,000  Level Seattle Center
03:16PM 45.8567 -122.6178 352° North 334 384 24,000  Level Seattle Center
03:17PM 45.9467 -122.6361 352° North 332 382 24,000  Level Seattle Center
03:18PM 46.0372 -122.6581 350° North 330 380 24,000  Level Seattle Center
03:19PM 46.1272 -122.6789 351° North 329 379 24,000  Level Seattle Center
03:20PM 46.2242 -122.7006 351° North 327 376 24,000  Level Seattle Center
03:21PM 46.3139 -122.7222 351° North 328 377 24,000 -300 Level Seattle Center
03:22PM 46.4069 -122.7222 360° North 340 391 23,500 -1,020 Descending Seattle Center
03:23PM 46.4989 -122.7158 North 334 384 22,000 -1,500 Descending Seattle Center
03:24PM 46.5928 -122.7158 360° North 338 389 20,500 -1,740 Descending Seattle Center
03:24PM 46.6531 -122.7122 North 350 403 19,400 -2,040 Descending Seattle Center
03:25PM 46.7078 -122.7089 North 361 415 18,500 -1,620 Descending Seattle Center
03:26PM 46.8103 -122.7022 North 367 422 17,000 -1,860 Descending Seattle Center
03:27PM 46.8961 -122.6108 36° Northeast 384 442 14,800 -1,800 Descending Seattle Center
03:28PM 46.9789 -122.5433 29° Northeast 341 392 13,400 -1,260 Descending Seattle Center
03:29PM 47.0756 -122.5039 16° North 327 376 12,300 -1,080 Descending Seattle Center
03:30PM 47.1542 -122.4861 North 319 367 11,200 -1,200 Descending Seattle Center
03:31PM 47.2492 -122.4711 North 312 359 9,900 -1,140 Descending Seattle Center
03:32PM 47.3261 -122.4586 North 270 311 9,000 -1,020 Descending Seattle Center
03:33PM 47.3919 -122.4553 North 243 280 8,000 -1,140 Descending Seattle Center
03:34PM 47.4572 -122.4589 358° North 224 258 6,900 -1,260 Descending Seattle Center
03:35PM 47.5297 -122.4569 North 235 270 5,300 -1,680 Descending Seattle Center
03:36PM 47.5881 -122.4492 North 238 274 3,600 -1,200 Descending Seattle Center
03:37PM 47.6150 -122.3622 65° Northeast 232 267 3,000 -480 Descending Seattle Center
03:38PM 47.5836 -122.3169 136° Southeast 179 206 2,700 -540 Descending Seattle Center
03:39PM 47.5414 -122.3172 180° South 138 159 2,000 -660 Descending Seattle Center
03:40PM 47.5106 -122.3181 181° South 107 123 1,400 -600 Descending Seattle Center
03:41PM 47.4814 -122.3175 179° South 89 102 900 -480 Descending Seattle Center
03:42PM 47.4467 -122.3194 182° South 105 121 400 -480 Descending Seattle Center